VOZ1025 YBBN-YBAS
Flight info
| Callsign | VOZ1025 |
|---|---|
| Flight time | 2h 59m |
| Altitude | 34000 |
| Route | BN V250 LEBIT V412 ROM/N0475F360 T11 AS |
| Aircraft | B738/M-SDE2E3FGHIRWXY/LB1 |
Departure
| Time | 2026-04-15 04:56 |
|---|---|
| Airport | Brisbane International Airport (YBBN) |
Arrival
| Time | 2026-04-15 07:55 |
|---|---|
| Airport | Alice Springs Airport (YBAS) |
| Time | Latitude | Longitude | Altitude | Speed | Heading |
|---|---|---|---|---|---|
| 2026-04-15 04:29 | -27.38836 | 153.11848 | 22 ft | 0 kts | 70° |
| 2026-04-15 04:45 | -27.38837 | 153.11845 | 20 ft | 3 kts | 69° |
| 2026-04-15 04:45 | -27.38850 | 153.11822 | 22 ft | 4 kts | 58° |
| 2026-04-15 04:45 | -27.38858 | 153.11801 | 24 ft | 4 kts | 126° |
| 2026-04-15 04:45 | -27.38844 | 153.11791 | 21 ft | 4 kts | 160° |
| 2026-04-15 04:46 | -27.38833 | 153.11787 | 23 ft | 0 kts | 160° |
| 2026-04-15 04:48 | -27.38856 | 153.11796 | 24 ft | 10 kts | 159° |
| 2026-04-15 04:48 | -27.38867 | 153.11801 | 20 ft | 0 kts | 160° |
| 2026-04-15 04:51 | -27.38918 | 153.11856 | 20 ft | 16 kts | 116° |
| 2026-04-15 04:51 | -27.38966 | 153.11968 | 20 ft | 15 kts | 117° |
| 2026-04-15 04:52 | -27.39021 | 153.12064 | 20 ft | 14 kts | 119° |
| 2026-04-15 04:52 | -27.39108 | 153.12125 | 20 ft | 20 kts | 199° |
| 2026-04-15 04:52 | -27.39240 | 153.12050 | 21 ft | 22 kts | 206° |
| 2026-04-15 04:52 | -27.39379 | 153.11972 | 22 ft | 22 kts | 206° |
| 2026-04-15 04:53 | -27.39504 | 153.11956 | 21 ft | 18 kts | 136° |
| 2026-04-15 04:53 | -27.39607 | 153.11980 | 20 ft | 17 kts | 208° |
| 2026-04-15 04:53 | -27.39727 | 153.11911 | 20 ft | 21 kts | 206° |
| 2026-04-15 04:53 | -27.39857 | 153.11839 | 21 ft | 20 kts | 206° |
| 2026-04-15 04:54 | -27.39976 | 153.11769 | 20 ft | 19 kts | 207° |
| 2026-04-15 04:54 | -27.40087 | 153.11703 | 21 ft | 17 kts | 207° |
| 2026-04-15 04:54 | -27.40191 | 153.11646 | 21 ft | 16 kts | 207° |
| 2026-04-15 04:54 | -27.40289 | 153.11624 | 20 ft | 15 kts | 144° |
| 2026-04-15 04:55 | -27.40322 | 153.11728 | 20 ft | 14 kts | 84° |
| 2026-04-15 04:55 | -27.40239 | 153.11846 | 18 ft | 35 kts | 27° |
| 2026-04-15 04:55 | -27.39772 | 153.12113 | 20 ft | 117 kts | 26° |
| 2026-04-15 04:55 | -27.38833 | 153.12654 | 114 ft | 180 kts | 27° |
| 2026-04-15 04:56 | -27.37700 | 153.13326 | 1113 ft | 185 kts | 30° |
| 2026-04-15 04:56 | -27.36602 | 153.14176 | 2049 ft | 199 kts | 41° |
| 2026-04-15 04:56 | -27.35588 | 153.15288 | 2710 ft | 208 kts | 46° |
| 2026-04-15 04:56 | -27.34592 | 153.16525 | 3038 ft | 219 kts | 49° |
| 2026-04-15 04:57 | -27.33568 | 153.17842 | 3396 ft | 229 kts | 49° |
| 2026-04-15 04:57 | -27.32480 | 153.19212 | 3716 ft | 242 kts | 48° |
| 2026-04-15 04:57 | -27.31297 | 153.20683 | 3874 ft | 267 kts | 48° |
| 2026-04-15 04:57 | -27.29991 | 153.22252 | 4314 ft | 276 kts | 45° |
| 2026-04-15 04:58 | -27.28875 | 153.23988 | 5086 ft | 272 kts | 71° |
| 2026-04-15 04:58 | -27.28547 | 153.26043 | 5905 ft | 268 kts | 87° |
| 2026-04-15 04:58 | -27.28459 | 153.28139 | 6553 ft | 271 kts | 88° |
| 2026-04-15 04:58 | -27.28382 | 153.30266 | 7143 ft | 275 kts | 88° |
| 2026-04-15 04:59 | -27.28295 | 153.32431 | 7722 ft | 280 kts | 88° |
| 2026-04-15 04:59 | -27.28203 | 153.34598 | 8385 ft | 282 kts | 87° |
| 2026-04-15 04:59 | -27.28231 | 153.36845 | 9120 ft | 287 kts | 103° |
| 2026-04-15 04:59 | -27.29076 | 153.38829 | 9861 ft | 288 kts | 132° |
| 2026-04-15 05:00 | -27.30664 | 153.40160 | 10550 ft | 288 kts | 160° |
| 2026-04-15 05:00 | -27.32606 | 153.40653 | 11255 ft | 287 kts | 178° |
| 2026-04-15 05:00 | -27.34602 | 153.40814 | 11960 ft | 289 kts | 179° |
| 2026-04-15 05:00 | -27.36623 | 153.40957 | 12681 ft | 292 kts | 180° |
| 2026-04-15 05:01 | -27.38652 | 153.40913 | 13323 ft | 294 kts | 195° |
| 2026-04-15 05:01 | -27.40683 | 153.40279 | 13524 ft | 314 kts | 200° |
| 2026-04-15 05:01 | -27.42828 | 153.39498 | 13721 ft | 333 kts | 205° |
| 2026-04-15 05:01 | -27.44758 | 153.38038 | 14073 ft | 338 kts | 229° |
| 2026-04-15 05:02 | -27.46042 | 153.35831 | 14575 ft | 342 kts | 249° |
| 2026-04-15 05:02 | -27.46515 | 153.33156 | 14682 ft | 360 kts | 271° |
| 2026-04-15 05:02 | -27.46078 | 153.30331 | 14910 ft | 374 kts | 284° |
| 2026-04-15 05:02 | -27.45378 | 153.27489 | 15335 ft | 379 kts | 284° |
| 2026-04-15 05:03 | -27.44680 | 153.24620 | 15876 ft | 381 kts | 284° |
| 2026-04-15 05:03 | -27.43913 | 153.21766 | 16420 ft | 384 kts | 291° |
| 2026-04-15 05:03 | -27.42627 | 153.19115 | 16947 ft | 387 kts | 300° |
| 2026-04-15 05:03 | -27.41202 | 153.16528 | 17469 ft | 390 kts | 300° |
| 2026-04-15 05:04 | -27.39778 | 153.13921 | 17969 ft | 393 kts | 299° |
| 2026-04-15 05:04 | -27.38367 | 153.11280 | 18451 ft | 395 kts | 299° |
| 2026-04-15 05:04 | -27.36965 | 153.08614 | 18890 ft | 397 kts | 298° |
| 2026-04-15 05:04 | -27.35564 | 153.05937 | 19363 ft | 397 kts | 298° |
| 2026-04-15 05:05 | -27.33975 | 153.03386 | 19824 ft | 401 kts | 307° |
| 2026-04-15 05:05 | -27.32097 | 153.01057 | 20264 ft | 403 kts | 310° |
| 2026-04-15 05:05 | -27.30175 | 152.98742 | 20676 ft | 406 kts | 309° |
| 2026-04-15 05:05 | -27.28391 | 152.96298 | 21059 ft | 404 kts | 299° |
| 2026-04-15 05:06 | -27.27069 | 152.93523 | 21512 ft | 403 kts | 294° |
| 2026-04-15 05:06 | -27.25827 | 152.90692 | 21949 ft | 404 kts | 294° |
| 2026-04-15 05:06 | -27.24593 | 152.87895 | 22347 ft | 406 kts | 294° |
| 2026-04-15 05:06 | -27.23319 | 152.85062 | 22733 ft | 407 kts | 294° |
| 2026-04-15 05:07 | -27.22003 | 152.82188 | 23139 ft | 409 kts | 294° |
| 2026-04-15 05:07 | -27.20689 | 152.79347 | 23515 ft | 410 kts | 294° |
| 2026-04-15 05:07 | -27.19386 | 152.76539 | 23841 ft | 412 kts | 294° |
| 2026-04-15 05:07 | -27.18055 | 152.73680 | 24170 ft | 412 kts | 294° |
| 2026-04-15 05:08 | -27.16720 | 152.70832 | 24527 ft | 413 kts | 295° |
| 2026-04-15 05:08 | -27.15376 | 152.67986 | 24963 ft | 411 kts | 294° |
| 2026-04-15 05:08 | -27.14039 | 152.65147 | 25292 ft | 412 kts | 294° |
| 2026-04-15 05:08 | -27.12699 | 152.62291 | 25532 ft | 414 kts | 294° |
| 2026-04-15 05:09 | -27.11355 | 152.59426 | 25805 ft | 416 kts | 294° |
| 2026-04-15 05:09 | -27.10008 | 152.56555 | 26094 ft | 416 kts | 294° |
| 2026-04-15 05:09 | -27.08641 | 152.53691 | 26322 ft | 417 kts | 294° |
| 2026-04-15 05:09 | -27.07290 | 152.50808 | 26559 ft | 418 kts | 294° |
| 2026-04-15 05:10 | -27.05938 | 152.47919 | 26860 ft | 418 kts | 294° |
| 2026-04-15 05:10 | -27.04584 | 152.45035 | 27140 ft | 418 kts | 294° |
| 2026-04-15 05:10 | -27.03221 | 152.42148 | 27375 ft | 419 kts | 294° |
| 2026-04-15 05:10 | -27.01853 | 152.39260 | 27589 ft | 420 kts | 294° |
| 2026-04-15 05:11 | -27.00481 | 152.36367 | 27813 ft | 421 kts | 294° |
| 2026-04-15 05:11 | -26.99575 | 152.34445 | 27930 ft | 421 kts | 294° |
| 2026-04-15 05:11 | -26.98201 | 152.31544 | 28150 ft | 421 kts | 294° |
| 2026-04-15 05:11 | -26.96825 | 152.28648 | 28466 ft | 420 kts | 294° |
| 2026-04-15 05:12 | -26.95456 | 152.25772 | 28855 ft | 416 kts | 294° |
| 2026-04-15 05:12 | -26.94102 | 152.22919 | 29269 ft | 413 kts | 294° |
| 2026-04-15 05:12 | -26.92298 | 152.19137 | 29729 ft | 410 kts | 294° |
| 2026-04-15 05:12 | -26.91386 | 152.17287 | 30033 ft | 408 kts | 295° |
| 2026-04-15 05:13 | -26.90051 | 152.14491 | 30292 ft | 407 kts | 294° |
| 2026-04-15 05:13 | -26.88736 | 152.11684 | 30525 ft | 406 kts | 294° |
| 2026-04-15 05:13 | -26.87421 | 152.08891 | 30795 ft | 405 kts | 294° |
| 2026-04-15 05:13 | -26.86106 | 152.06118 | 31091 ft | 402 kts | 294° |
| 2026-04-15 05:14 | -26.84795 | 152.03348 | 31257 ft | 403 kts | 294° |
| 2026-04-15 05:14 | -26.83472 | 152.00584 | 31471 ft | 402 kts | 294° |
| 2026-04-15 05:14 | -26.82164 | 151.97820 | 31725 ft | 400 kts | 292° |
| 2026-04-15 05:14 | -26.81139 | 151.94955 | 32084 ft | 394 kts | 286° |
| 2026-04-15 05:15 | -26.80397 | 151.92028 | 32442 ft | 390 kts | 282° |
| 2026-04-15 05:15 | -26.79950 | 151.89036 | 32639 ft | 391 kts | 276° |
| 2026-04-15 05:15 | -26.79729 | 151.86002 | 32843 ft | 391 kts | 275° |
| 2026-04-15 05:15 | -26.79521 | 151.82973 | 33129 ft | 389 kts | 275° |
| 2026-04-15 05:16 | -26.79316 | 151.79948 | 33303 ft | 391 kts | 275° |
| 2026-04-15 05:16 | -26.79106 | 151.76906 | 33419 ft | 393 kts | 276° |
| 2026-04-15 05:16 | -26.78891 | 151.73851 | 33545 ft | 394 kts | 276° |
| 2026-04-15 05:16 | -26.78673 | 151.70789 | 33740 ft | 394 kts | 276° |
| 2026-04-15 05:17 | -26.78455 | 151.67755 | 34080 ft | 389 kts | 276° |
| 2026-04-15 05:17 | -26.78236 | 151.64738 | 34058 ft | 389 kts | 276° |
| 2026-04-15 05:17 | -26.77797 | 151.58754 | 34088 ft | 389 kts | 276° |
| 2026-04-15 05:18 | -26.77349 | 151.52693 | 34100 ft | 392 kts | 276° |
| 2026-04-15 05:18 | -26.76893 | 151.46609 | 34087 ft | 393 kts | 276° |
| 2026-04-15 05:19 | -26.76438 | 151.40519 | 34082 ft | 393 kts | 276° |
| 2026-04-15 05:19 | -26.75981 | 151.34431 | 34087 ft | 392 kts | 276° |
| 2026-04-15 05:20 | -26.75522 | 151.28352 | 34086 ft | 392 kts | 276° |
| 2026-04-15 05:20 | -26.75061 | 151.22290 | 34089 ft | 391 kts | 276° |
| 2026-04-15 05:21 | -26.74596 | 151.16222 | 34081 ft | 391 kts | 276° |
| 2026-04-15 05:21 | -26.74130 | 151.10166 | 34086 ft | 391 kts | 276° |
| 2026-04-15 05:22 | -26.73661 | 151.04114 | 34063 ft | 391 kts | 277° |
| 2026-04-15 05:22 | -26.73189 | 150.98042 | 34111 ft | 394 kts | 277° |
| 2026-04-15 05:23 | -26.72713 | 150.91963 | 34334 ft | 394 kts | 276° |
| 2026-04-15 05:23 | -26.72473 | 150.88917 | 34513 ft | 393 kts | 276° |
| 2026-04-15 05:23 | -26.72234 | 150.85872 | 34667 ft | 393 kts | 276° |
| 2026-04-15 05:24 | -26.71993 | 150.82827 | 34800 ft | 393 kts | 276° |
| 2026-04-15 05:24 | -26.71752 | 150.79785 | 34956 ft | 393 kts | 276° |
| 2026-04-15 05:24 | -26.71511 | 150.76747 | 35117 ft | 392 kts | 276° |
| 2026-04-15 05:24 | -26.71270 | 150.73719 | 35299 ft | 391 kts | 276° |
| 2026-04-15 05:25 | -26.71028 | 150.70693 | 35451 ft | 390 kts | 276° |
| 2026-04-15 05:25 | -26.70785 | 150.67669 | 35608 ft | 390 kts | 276° |
| 2026-04-15 05:25 | -26.70543 | 150.64649 | 35770 ft | 390 kts | 276° |
| 2026-04-15 05:25 | -26.70300 | 150.61633 | 35930 ft | 389 kts | 276° |
| 2026-04-15 05:26 | -26.70057 | 150.58625 | 36049 ft | 388 kts | 276° |
| 2026-04-15 05:26 | -26.69813 | 150.55611 | 36067 ft | 390 kts | 276° |
| 2026-04-15 05:26 | -26.69322 | 150.49566 | 36079 ft | 390 kts | 276° |
| 2026-04-15 05:27 | -26.68828 | 150.43522 | 36066 ft | 391 kts | 276° |
| 2026-04-15 05:27 | -26.68331 | 150.37472 | 36078 ft | 391 kts | 276° |
| 2026-04-15 05:28 | -26.67831 | 150.31422 | 36075 ft | 391 kts | 276° |
| 2026-04-15 05:28 | -26.67328 | 150.25367 | 36077 ft | 391 kts | 276° |
| 2026-04-15 05:29 | -26.66824 | 150.19319 | 36077 ft | 391 kts | 276° |
| 2026-04-15 05:29 | -26.66316 | 150.13260 | 36076 ft | 392 kts | 276° |
| 2026-04-15 05:30 | -26.65808 | 150.07238 | 36078 ft | 392 kts | 276° |
| 2026-04-15 05:30 | -26.65294 | 150.01174 | 36078 ft | 392 kts | 276° |
| 2026-04-15 05:31 | -26.64777 | 149.95105 | 36075 ft | 392 kts | 276° |
| 2026-04-15 05:31 | -26.64258 | 149.89035 | 36077 ft | 392 kts | 276° |
| 2026-04-15 05:32 | -26.63736 | 149.82966 | 36084 ft | 392 kts | 277° |
| 2026-04-15 05:32 | -26.63211 | 149.76903 | 36074 ft | 392 kts | 277° |
| 2026-04-15 05:33 | -26.62686 | 149.70850 | 36076 ft | 391 kts | 277° |
| 2026-04-15 05:33 | -26.62158 | 149.64804 | 36079 ft | 391 kts | 277° |
| 2026-04-15 05:34 | -26.61628 | 149.58764 | 36072 ft | 390 kts | 277° |
| 2026-04-15 05:34 | -26.61095 | 149.52726 | 36075 ft | 391 kts | 277° |
| 2026-04-15 05:35 | -26.60560 | 149.46689 | 36075 ft | 390 kts | 277° |
| 2026-04-15 05:35 | -26.60022 | 149.40648 | 36075 ft | 391 kts | 277° |
| 2026-04-15 05:36 | -26.59482 | 149.34610 | 36074 ft | 391 kts | 277° |
| 2026-04-15 05:36 | -26.58939 | 149.28571 | 36074 ft | 391 kts | 277° |
| 2026-04-15 05:37 | -26.58394 | 149.22533 | 36073 ft | 391 kts | 277° |
| 2026-04-15 05:37 | -26.57845 | 149.16491 | 36074 ft | 391 kts | 277° |
| 2026-04-15 05:38 | -26.57294 | 149.10451 | 36078 ft | 391 kts | 277° |
| 2026-04-15 05:38 | -26.56745 | 149.04453 | 36076 ft | 391 kts | 277° |
| 2026-04-15 05:39 | -26.56188 | 148.98408 | 36073 ft | 392 kts | 277° |
| 2026-04-15 05:39 | -26.55629 | 148.92353 | 36075 ft | 392 kts | 277° |
| 2026-04-15 05:40 | -26.55065 | 148.86286 | 36072 ft | 393 kts | 277° |
| 2026-04-15 05:40 | -26.54499 | 148.80214 | 36071 ft | 393 kts | 277° |
| 2026-04-15 05:41 | -26.53854 | 148.74152 | 36065 ft | 393 kts | 279° |
| 2026-04-15 05:41 | -26.53048 | 148.68112 | 36069 ft | 393 kts | 279° |
| 2026-04-15 05:42 | -26.52230 | 148.62073 | 36071 ft | 393 kts | 279° |
| 2026-04-15 05:42 | -26.51424 | 148.56028 | 36070 ft | 394 kts | 279° |
| 2026-04-15 05:43 | -26.50626 | 148.49982 | 36070 ft | 394 kts | 279° |
| 2026-04-15 05:43 | -26.49828 | 148.43930 | 36062 ft | 394 kts | 279° |
| 2026-04-15 05:44 | -26.49032 | 148.37915 | 36067 ft | 395 kts | 279° |
| 2026-04-15 05:44 | -26.48228 | 148.31854 | 36066 ft | 395 kts | 279° |
| 2026-04-15 05:45 | -26.47421 | 148.25789 | 36066 ft | 395 kts | 279° |
| 2026-04-15 05:45 | -26.46611 | 148.19721 | 36055 ft | 395 kts | 280° |
| 2026-04-15 05:46 | -26.45798 | 148.13652 | 36066 ft | 396 kts | 280° |
| 2026-04-15 05:46 | -26.44980 | 148.07572 | 36061 ft | 397 kts | 280° |
| 2026-04-15 05:47 | -26.44159 | 148.01487 | 36061 ft | 397 kts | 280° |
| 2026-04-15 05:47 | -26.43336 | 147.95402 | 36062 ft | 397 kts | 280° |
| 2026-04-15 05:48 | -26.42510 | 147.89315 | 36077 ft | 397 kts | 280° |
| 2026-04-15 05:48 | -26.41682 | 147.83238 | 36065 ft | 396 kts | 280° |
| 2026-04-15 05:49 | -26.40852 | 147.77164 | 36061 ft | 396 kts | 280° |
| 2026-04-15 05:49 | -26.40021 | 147.71102 | 36061 ft | 395 kts | 280° |
| 2026-04-15 05:50 | -26.39194 | 147.65087 | 36061 ft | 395 kts | 280° |
| 2026-04-15 05:51 | -26.37939 | 147.56002 | 36066 ft | 395 kts | 280° |
| 2026-04-15 05:51 | -26.37099 | 147.49940 | 36065 ft | 395 kts | 280° |
| 2026-04-15 05:52 | -26.36257 | 147.43884 | 36058 ft | 395 kts | 280° |
| 2026-04-15 05:52 | -26.35412 | 147.37827 | 36061 ft | 395 kts | 280° |
| 2026-04-15 05:53 | -26.34563 | 147.31763 | 36059 ft | 396 kts | 280° |
| 2026-04-15 05:53 | -26.33711 | 147.25694 | 36062 ft | 396 kts | 280° |
| 2026-04-15 05:54 | -26.32855 | 147.19619 | 36060 ft | 397 kts | 280° |
| 2026-04-15 05:54 | -26.31997 | 147.13544 | 36059 ft | 397 kts | 280° |
| 2026-04-15 05:55 | -26.31135 | 147.07460 | 36059 ft | 397 kts | 280° |
| 2026-04-15 05:55 | -26.30270 | 147.01373 | 36056 ft | 398 kts | 280° |
| 2026-04-15 05:56 | -26.29402 | 146.95287 | 36060 ft | 398 kts | 280° |
| 2026-04-15 05:56 | -26.28531 | 146.89198 | 36058 ft | 398 kts | 281° |
| 2026-04-15 05:57 | -26.27657 | 146.83110 | 36059 ft | 398 kts | 281° |
| 2026-04-15 05:57 | -26.26780 | 146.77018 | 36059 ft | 398 kts | 281° |
| 2026-04-15 05:58 | -26.25901 | 146.70927 | 36057 ft | 398 kts | 281° |
| 2026-04-15 05:58 | -26.25018 | 146.64833 | 36059 ft | 399 kts | 281° |
| 2026-04-15 05:59 | -26.24133 | 146.58737 | 36054 ft | 399 kts | 281° |
| 2026-04-15 05:59 | -26.23244 | 146.52636 | 36054 ft | 399 kts | 281° |
| 2026-04-15 06:00 | -26.22352 | 146.46539 | 36054 ft | 399 kts | 281° |
| 2026-04-15 06:00 | -26.21459 | 146.40446 | 36058 ft | 398 kts | 281° |
| 2026-04-15 06:01 | -26.20565 | 146.34360 | 36057 ft | 398 kts | 281° |
| 2026-04-15 06:01 | -26.19818 | 146.29299 | 36041 ft | 398 kts | 281° |
| 2026-04-15 06:02 | -26.18918 | 146.23213 | 36051 ft | 398 kts | 281° |
| 2026-04-15 06:02 | -26.18015 | 146.17124 | 36053 ft | 399 kts | 281° |
| 2026-04-15 06:03 | -26.17109 | 146.11032 | 36054 ft | 399 kts | 281° |
| 2026-04-15 06:03 | -26.16200 | 146.04936 | 36054 ft | 399 kts | 281° |
| 2026-04-15 06:04 | -26.15288 | 145.98844 | 36054 ft | 399 kts | 281° |
| 2026-04-15 06:04 | -26.14373 | 145.92748 | 36054 ft | 399 kts | 281° |
| 2026-04-15 06:05 | -26.13462 | 145.86694 | 36055 ft | 399 kts | 281° |
| 2026-04-15 06:05 | -26.12542 | 145.80599 | 36055 ft | 399 kts | 281° |
| 2026-04-15 06:06 | -26.11619 | 145.74501 | 36043 ft | 400 kts | 281° |
| 2026-04-15 06:06 | -26.10692 | 145.68400 | 36047 ft | 400 kts | 281° |
| 2026-04-15 06:07 | -26.09763 | 145.62297 | 36052 ft | 400 kts | 281° |
| 2026-04-15 06:07 | -26.08831 | 145.56195 | 36049 ft | 400 kts | 281° |
| 2026-04-15 06:08 | -26.07895 | 145.50088 | 36047 ft | 400 kts | 281° |
| 2026-04-15 06:08 | -26.06958 | 145.43986 | 36052 ft | 401 kts | 281° |
| 2026-04-15 06:09 | -26.06016 | 145.37876 | 36053 ft | 401 kts | 281° |
| 2026-04-15 06:09 | -26.05072 | 145.31766 | 36050 ft | 401 kts | 281° |
| 2026-04-15 06:10 | -26.04125 | 145.25654 | 36047 ft | 401 kts | 281° |
| 2026-04-15 06:10 | -26.03176 | 145.19546 | 36052 ft | 401 kts | 281° |
| 2026-04-15 06:11 | -26.02223 | 145.13434 | 36050 ft | 401 kts | 281° |
| 2026-04-15 06:11 | -26.01268 | 145.07322 | 36051 ft | 401 kts | 281° |
| 2026-04-15 06:12 | -26.00309 | 145.01208 | 36048 ft | 401 kts | 281° |
| 2026-04-15 06:12 | -25.99355 | 144.95134 | 36046 ft | 402 kts | 281° |
| 2026-04-15 06:13 | -25.98391 | 144.89018 | 36047 ft | 402 kts | 282° |
| 2026-04-15 06:13 | -25.97423 | 144.82898 | 36047 ft | 402 kts | 282° |
| 2026-04-15 06:14 | -25.96453 | 144.76780 | 36045 ft | 402 kts | 282° |
| 2026-04-15 06:14 | -25.95480 | 144.70658 | 36042 ft | 402 kts | 282° |
| 2026-04-15 06:15 | -25.94505 | 144.64539 | 36036 ft | 403 kts | 282° |
| 2026-04-15 06:15 | -25.93526 | 144.58416 | 36043 ft | 402 kts | 282° |
| 2026-04-15 06:16 | -25.92544 | 144.52292 | 36037 ft | 403 kts | 282° |
| 2026-04-15 06:16 | -25.91560 | 144.46167 | 36036 ft | 403 kts | 282° |
| 2026-04-15 06:17 | -25.90573 | 144.40040 | 36039 ft | 403 kts | 282° |
| 2026-04-15 06:17 | -25.89582 | 144.33908 | 36034 ft | 403 kts | 282° |
| 2026-04-15 06:18 | -25.88585 | 144.27780 | 36034 ft | 403 kts | 282° |
| 2026-04-15 06:18 | -25.87584 | 144.21650 | 36037 ft | 404 kts | 282° |
| 2026-04-15 06:19 | -25.86580 | 144.15518 | 36037 ft | 404 kts | 282° |
| 2026-04-15 06:19 | -25.85575 | 144.09388 | 36031 ft | 404 kts | 282° |
| 2026-04-15 06:20 | -25.84574 | 144.03300 | 36031 ft | 404 kts | 282° |
| 2026-04-15 06:20 | -25.83563 | 143.97172 | 36036 ft | 404 kts | 282° |
| 2026-04-15 06:21 | -25.82550 | 143.91041 | 36028 ft | 404 kts | 282° |
| 2026-04-15 06:21 | -25.81534 | 143.84914 | 36027 ft | 404 kts | 282° |
| 2026-04-15 06:22 | -25.80516 | 143.78788 | 36027 ft | 404 kts | 282° |
| 2026-04-15 06:22 | -25.79495 | 143.72662 | 36021 ft | 404 kts | 282° |
| 2026-04-15 06:23 | -25.78471 | 143.66536 | 36029 ft | 404 kts | 282° |
| 2026-04-15 06:23 | -25.77445 | 143.60409 | 36031 ft | 404 kts | 282° |
| 2026-04-15 06:24 | -25.76415 | 143.54280 | 36027 ft | 404 kts | 282° |
| 2026-04-15 06:24 | -25.75382 | 143.48151 | 36032 ft | 404 kts | 282° |
| 2026-04-15 06:25 | -25.74348 | 143.42025 | 36023 ft | 404 kts | 282° |
| 2026-04-15 06:25 | -25.73311 | 143.35903 | 36025 ft | 404 kts | 282° |
| 2026-04-15 06:26 | -25.72272 | 143.29784 | 36022 ft | 404 kts | 282° |
| 2026-04-15 06:26 | -25.71236 | 143.23702 | 36015 ft | 404 kts | 282° |
| 2026-04-15 06:27 | -25.70191 | 143.17580 | 36023 ft | 404 kts | 282° |
| 2026-04-15 06:27 | -25.69144 | 143.11459 | 36022 ft | 404 kts | 282° |
| 2026-04-15 06:28 | -25.68093 | 143.05335 | 36017 ft | 404 kts | 282° |
| 2026-04-15 06:28 | -25.67041 | 142.99218 | 36018 ft | 404 kts | 282° |
| 2026-04-15 06:29 | -25.65985 | 142.93099 | 36021 ft | 404 kts | 282° |
| 2026-04-15 06:29 | -25.64927 | 142.86982 | 36018 ft | 404 kts | 282° |
| 2026-04-15 06:30 | -25.63867 | 142.80865 | 36018 ft | 404 kts | 282° |
| 2026-04-15 06:30 | -25.62804 | 142.74748 | 36018 ft | 404 kts | 283° |
| 2026-04-15 06:31 | -25.61737 | 142.68631 | 36019 ft | 404 kts | 283° |
| 2026-04-15 06:31 | -25.60676 | 142.62554 | 36019 ft | 404 kts | 283° |
| 2026-04-15 06:32 | -25.59604 | 142.56438 | 36021 ft | 404 kts | 283° |
| 2026-04-15 06:32 | -25.58530 | 142.50320 | 36012 ft | 405 kts | 283° |
| 2026-04-15 06:33 | -25.57453 | 142.44201 | 36022 ft | 405 kts | 283° |
| 2026-04-15 06:33 | -25.56373 | 142.38085 | 36018 ft | 405 kts | 283° |
| 2026-04-15 06:34 | -25.55290 | 142.31965 | 36018 ft | 405 kts | 283° |
| 2026-04-15 06:34 | -25.54205 | 142.25847 | 36018 ft | 405 kts | 283° |
| 2026-04-15 06:35 | -25.53116 | 142.19727 | 36019 ft | 405 kts | 283° |
| 2026-04-15 06:35 | -25.52026 | 142.13609 | 36019 ft | 405 kts | 283° |
| 2026-04-15 06:36 | -25.50932 | 142.07492 | 36017 ft | 405 kts | 283° |
| 2026-04-15 06:36 | -25.49844 | 142.01419 | 36024 ft | 405 kts | 283° |
| 2026-04-15 06:37 | -25.48745 | 141.95303 | 36018 ft | 405 kts | 283° |
| 2026-04-15 06:37 | -25.47643 | 141.89184 | 36019 ft | 405 kts | 283° |
| 2026-04-15 06:38 | -25.46540 | 141.83071 | 36020 ft | 405 kts | 283° |
| 2026-04-15 06:38 | -25.45432 | 141.76952 | 36016 ft | 405 kts | 283° |
| 2026-04-15 06:39 | -25.44322 | 141.70833 | 36017 ft | 406 kts | 283° |
| 2026-04-15 06:39 | -25.43210 | 141.64718 | 36021 ft | 406 kts | 283° |
| 2026-04-15 06:40 | -25.42095 | 141.58600 | 36012 ft | 406 kts | 283° |
| 2026-04-15 06:40 | -25.40977 | 141.52484 | 36019 ft | 406 kts | 283° |
| 2026-04-15 06:41 | -25.39857 | 141.46371 | 36013 ft | 405 kts | 283° |
| 2026-04-15 06:41 | -25.38736 | 141.40266 | 36010 ft | 405 kts | 283° |
| 2026-04-15 06:42 | -25.37613 | 141.34165 | 36012 ft | 405 kts | 284° |
| 2026-04-15 06:42 | -25.36488 | 141.28068 | 36011 ft | 405 kts | 284° |
| 2026-04-15 06:43 | -25.35361 | 141.21974 | 36009 ft | 404 kts | 284° |
| 2026-04-15 06:43 | -25.34240 | 141.15924 | 36010 ft | 404 kts | 284° |
| 2026-04-15 06:44 | -25.33107 | 141.09835 | 36004 ft | 404 kts | 284° |
| 2026-04-15 06:44 | -25.31970 | 141.03746 | 36009 ft | 405 kts | 284° |
| 2026-04-15 06:45 | -25.30831 | 140.97656 | 36008 ft | 405 kts | 284° |
| 2026-04-15 06:45 | -25.29688 | 140.91558 | 36010 ft | 405 kts | 284° |
| 2026-04-15 06:46 | -25.28543 | 140.85462 | 36006 ft | 405 kts | 284° |
| 2026-04-15 06:46 | -25.27394 | 140.79359 | 36009 ft | 406 kts | 284° |
| 2026-04-15 06:47 | -25.26244 | 140.73261 | 36006 ft | 406 kts | 284° |
| 2026-04-15 06:47 | -25.25090 | 140.67160 | 36004 ft | 406 kts | 284° |
| 2026-04-15 06:48 | -25.23934 | 140.61062 | 36002 ft | 406 kts | 284° |
| 2026-04-15 06:48 | -25.22773 | 140.54957 | 36007 ft | 406 kts | 284° |
| 2026-04-15 06:49 | -25.21611 | 140.48854 | 36011 ft | 406 kts | 284° |
| 2026-04-15 06:49 | -25.20445 | 140.42748 | 36007 ft | 406 kts | 284° |
| 2026-04-15 06:50 | -25.18699 | 140.33631 | 36011 ft | 406 kts | 284° |
| 2026-04-15 06:50 | -25.17527 | 140.27527 | 36008 ft | 407 kts | 284° |
| 2026-04-15 06:51 | -25.16351 | 140.21423 | 36008 ft | 407 kts | 284° |
| 2026-04-15 06:51 | -25.15173 | 140.15316 | 36007 ft | 407 kts | 284° |
| 2026-04-15 06:52 | -25.13992 | 140.09208 | 36008 ft | 407 kts | 284° |
| 2026-04-15 06:52 | -25.12808 | 140.03099 | 36008 ft | 407 kts | 284° |
| 2026-04-15 06:53 | -25.11621 | 139.96990 | 36008 ft | 407 kts | 284° |
| 2026-04-15 06:53 | -25.10431 | 139.90882 | 36007 ft | 407 kts | 285° |
| 2026-04-15 06:54 | -25.09238 | 139.84769 | 36009 ft | 407 kts | 285° |
| 2026-04-15 06:54 | -25.08245 | 139.79691 | 36008 ft | 408 kts | 285° |
| 2026-04-15 06:55 | -25.06844 | 139.72545 | 36004 ft | 408 kts | 285° |
| 2026-04-15 06:55 | -25.05846 | 139.67466 | 36013 ft | 408 kts | 285° |
| 2026-04-15 06:56 | -25.04642 | 139.61351 | 36023 ft | 408 kts | 285° |
| 2026-04-15 06:56 | -25.03436 | 139.55238 | 36012 ft | 408 kts | 285° |
| 2026-04-15 06:57 | -25.02228 | 139.49130 | 36012 ft | 408 kts | 285° |
| 2026-04-15 06:57 | -25.01017 | 139.43026 | 36014 ft | 408 kts | 285° |
| 2026-04-15 06:58 | -24.99805 | 139.36921 | 36014 ft | 408 kts | 285° |
| 2026-04-15 06:58 | -24.98589 | 139.30817 | 36012 ft | 408 kts | 285° |
| 2026-04-15 06:59 | -24.97371 | 139.24716 | 36015 ft | 408 kts | 285° |
| 2026-04-15 06:59 | -24.96151 | 139.18618 | 36015 ft | 408 kts | 285° |
| 2026-04-15 07:00 | -24.94928 | 139.12518 | 36015 ft | 407 kts | 285° |
| 2026-04-15 07:00 | -24.93712 | 139.06464 | 36008 ft | 408 kts | 285° |
| 2026-04-15 07:01 | -24.92484 | 139.00365 | 36018 ft | 408 kts | 285° |
| 2026-04-15 07:01 | -24.91253 | 138.94265 | 36013 ft | 408 kts | 285° |
| 2026-04-15 07:02 | -24.90018 | 138.88160 | 36019 ft | 408 kts | 285° |
| 2026-04-15 07:02 | -24.88780 | 138.82053 | 36019 ft | 409 kts | 285° |
| 2026-04-15 07:03 | -24.87540 | 138.75947 | 36020 ft | 409 kts | 285° |
| 2026-04-15 07:03 | -24.86295 | 138.69834 | 36016 ft | 409 kts | 285° |
| 2026-04-15 07:04 | -24.85048 | 138.63725 | 36013 ft | 409 kts | 285° |
| 2026-04-15 07:04 | -24.83799 | 138.57614 | 36018 ft | 409 kts | 285° |
| 2026-04-15 07:05 | -24.82546 | 138.51503 | 36015 ft | 409 kts | 285° |
| 2026-04-15 07:05 | -24.81291 | 138.45393 | 36017 ft | 409 kts | 285° |
| 2026-04-15 07:06 | -24.80034 | 138.39282 | 36014 ft | 410 kts | 285° |
| 2026-04-15 07:06 | -24.78781 | 138.33209 | 36013 ft | 410 kts | 285° |
| 2026-04-15 07:07 | -24.77517 | 138.27097 | 36014 ft | 410 kts | 285° |
| 2026-04-15 07:07 | -24.76251 | 138.20985 | 36010 ft | 410 kts | 285° |
| 2026-04-15 07:08 | -24.74982 | 138.14873 | 36017 ft | 410 kts | 285° |
| 2026-04-15 07:08 | -24.73710 | 138.08763 | 36017 ft | 410 kts | 285° |
| 2026-04-15 07:09 | -24.72436 | 138.02651 | 36017 ft | 410 kts | 286° |
| 2026-04-15 07:09 | -24.71159 | 137.96539 | 36015 ft | 410 kts | 286° |
| 2026-04-15 07:10 | -24.69879 | 137.90425 | 36018 ft | 410 kts | 286° |
| 2026-04-15 07:10 | -24.68595 | 137.84310 | 36035 ft | 410 kts | 286° |
| 2026-04-15 07:11 | -24.67311 | 137.78199 | 36018 ft | 410 kts | 286° |
| 2026-04-15 07:11 | -24.66025 | 137.72094 | 36017 ft | 410 kts | 286° |
| 2026-04-15 07:12 | -24.64745 | 137.66034 | 36013 ft | 409 kts | 286° |
| 2026-04-15 07:12 | -24.63454 | 137.59945 | 36012 ft | 409 kts | 286° |
| 2026-04-15 07:13 | -24.62162 | 137.53859 | 36010 ft | 409 kts | 286° |
| 2026-04-15 07:13 | -24.60867 | 137.47776 | 36015 ft | 409 kts | 286° |
| 2026-04-15 07:14 | -24.59571 | 137.41691 | 36014 ft | 409 kts | 286° |
| 2026-04-15 07:14 | -24.58272 | 137.35607 | 36009 ft | 409 kts | 286° |
| 2026-04-15 07:15 | -24.56969 | 137.29519 | 36016 ft | 409 kts | 286° |
| 2026-04-15 07:15 | -24.55662 | 137.23427 | 36014 ft | 410 kts | 286° |
| 2026-04-15 07:16 | -24.54355 | 137.17341 | 36012 ft | 410 kts | 286° |
| 2026-04-15 07:16 | -24.53043 | 137.11250 | 36016 ft | 410 kts | 286° |
| 2026-04-15 07:17 | -24.51729 | 137.05161 | 36014 ft | 410 kts | 286° |
| 2026-04-15 07:17 | -24.50413 | 136.99072 | 36013 ft | 410 kts | 286° |
| 2026-04-15 07:18 | -24.49093 | 136.92978 | 36012 ft | 410 kts | 286° |
| 2026-04-15 07:18 | -24.47769 | 136.86883 | 36018 ft | 410 kts | 286° |
| 2026-04-15 07:19 | -24.46454 | 136.80830 | 36015 ft | 411 kts | 286° |
| 2026-04-15 07:19 | -24.45072 | 136.74710 | 36015 ft | 410 kts | 288° |
| 2026-04-15 07:20 | -24.43459 | 136.68757 | 36018 ft | 410 kts | 289° |
| 2026-04-15 07:20 | -24.41789 | 136.62781 | 36025 ft | 410 kts | 289° |
| 2026-04-15 07:21 | -24.40127 | 136.56799 | 36022 ft | 410 kts | 289° |
| 2026-04-15 07:21 | -24.38473 | 136.50812 | 36021 ft | 410 kts | 289° |
| 2026-04-15 07:22 | -24.36821 | 136.44821 | 36023 ft | 410 kts | 289° |
| 2026-04-15 07:22 | -24.35168 | 136.38833 | 36016 ft | 410 kts | 289° |
| 2026-04-15 07:23 | -24.33511 | 136.32840 | 36021 ft | 411 kts | 289° |
| 2026-04-15 07:23 | -24.31851 | 136.26848 | 36022 ft | 411 kts | 289° |
| 2026-04-15 07:24 | -24.30188 | 136.20856 | 36023 ft | 411 kts | 289° |
| 2026-04-15 07:24 | -24.28523 | 136.14863 | 36016 ft | 411 kts | 289° |
| 2026-04-15 07:25 | -24.26854 | 136.08871 | 36023 ft | 411 kts | 289° |
| 2026-04-15 07:25 | -24.25183 | 136.02877 | 36022 ft | 411 kts | 289° |
| 2026-04-15 07:26 | -24.23508 | 135.96882 | 36022 ft | 411 kts | 289° |
| 2026-04-15 07:26 | -24.21830 | 135.90885 | 36024 ft | 412 kts | 289° |
| 2026-04-15 07:27 | -24.20149 | 135.84888 | 36022 ft | 412 kts | 289° |
| 2026-04-15 07:27 | -24.18464 | 135.78887 | 36021 ft | 412 kts | 289° |
| 2026-04-15 07:28 | -24.16788 | 135.72925 | 36036 ft | 412 kts | 289° |
| 2026-04-15 07:28 | -24.15096 | 135.66920 | 36022 ft | 413 kts | 289° |
| 2026-04-15 07:29 | -24.13402 | 135.60916 | 36025 ft | 413 kts | 289° |
| 2026-04-15 07:29 | -24.11707 | 135.54918 | 36023 ft | 412 kts | 289° |
| 2026-04-15 07:30 | -24.10011 | 135.48926 | 36030 ft | 412 kts | 289° |
| 2026-04-15 07:30 | -24.08312 | 135.42933 | 36026 ft | 412 kts | 289° |
| 2026-04-15 07:31 | -24.06610 | 135.36943 | 36020 ft | 412 kts | 289° |
| 2026-04-15 07:31 | -24.04905 | 135.30948 | 36022 ft | 413 kts | 289° |
| 2026-04-15 07:32 | -24.03197 | 135.24951 | 36025 ft | 413 kts | 289° |
| 2026-04-15 07:32 | -24.02336 | 135.21937 | 35588 ft | 420 kts | 289° |
| 2026-04-15 07:32 | -24.01467 | 135.18895 | 35016 ft | 417 kts | 289° |
| 2026-04-15 07:33 | -24.00601 | 135.15861 | 34285 ft | 419 kts | 289° |
| 2026-04-15 07:33 | -23.99730 | 135.12816 | 33465 ft | 421 kts | 289° |
| 2026-04-15 07:33 | -23.98855 | 135.09759 | 32665 ft | 421 kts | 289° |
| 2026-04-15 07:33 | -23.97977 | 135.06697 | 31886 ft | 423 kts | 289° |
| 2026-04-15 07:34 | -23.97096 | 135.03624 | 31051 ft | 425 kts | 289° |
| 2026-04-15 07:34 | -23.96210 | 135.00535 | 30210 ft | 427 kts | 289° |
| 2026-04-15 07:34 | -23.95322 | 134.97442 | 29516 ft | 424 kts | 289° |
| 2026-04-15 07:34 | -23.94443 | 134.94382 | 28824 ft | 420 kts | 289° |
| 2026-04-15 07:35 | -23.93574 | 134.91356 | 28189 ft | 415 kts | 289° |
| 2026-04-15 07:35 | -23.92713 | 134.88365 | 27582 ft | 410 kts | 289° |
| 2026-04-15 07:35 | -23.91862 | 134.85410 | 26988 ft | 405 kts | 289° |
| 2026-04-15 07:35 | -23.91020 | 134.82488 | 26409 ft | 401 kts | 289° |
| 2026-04-15 07:36 | -23.90196 | 134.79633 | 25842 ft | 398 kts | 289° |
| 2026-04-15 07:36 | -23.89366 | 134.76760 | 25268 ft | 394 kts | 289° |
| 2026-04-15 07:36 | -23.88543 | 134.73913 | 24678 ft | 392 kts | 289° |
| 2026-04-15 07:36 | -23.87722 | 134.71078 | 24103 ft | 390 kts | 289° |
| 2026-04-15 07:37 | -23.86906 | 134.68259 | 23500 ft | 388 kts | 288° |
| 2026-04-15 07:37 | -23.86093 | 134.65452 | 22845 ft | 386 kts | 289° |
| 2026-04-15 07:37 | -23.85287 | 134.62670 | 22252 ft | 383 kts | 289° |
| 2026-04-15 07:37 | -23.84486 | 134.59911 | 21678 ft | 380 kts | 289° |
| 2026-04-15 07:38 | -23.83692 | 134.57173 | 21111 ft | 376 kts | 289° |
| 2026-04-15 07:38 | -23.82903 | 134.54458 | 20546 ft | 374 kts | 289° |
| 2026-04-15 07:38 | -23.82118 | 134.51759 | 19997 ft | 372 kts | 289° |
| 2026-04-15 07:38 | -23.81336 | 134.49071 | 19423 ft | 371 kts | 289° |
| 2026-04-15 07:39 | -23.80555 | 134.46390 | 18857 ft | 370 kts | 289° |
| 2026-04-15 07:39 | -23.79776 | 134.43716 | 18288 ft | 370 kts | 289° |
| 2026-04-15 07:39 | -23.78997 | 134.41044 | 17655 ft | 369 kts | 289° |
| 2026-04-15 07:39 | -23.78220 | 134.38383 | 17087 ft | 367 kts | 289° |
| 2026-04-15 07:40 | -23.77448 | 134.35738 | 16525 ft | 365 kts | 289° |
| 2026-04-15 07:40 | -23.76677 | 134.33098 | 15945 ft | 364 kts | 289° |
| 2026-04-15 07:40 | -23.75908 | 134.30466 | 15385 ft | 364 kts | 289° |
| 2026-04-15 07:40 | -23.75139 | 134.27838 | 14821 ft | 364 kts | 289° |
| 2026-04-15 07:41 | -23.74368 | 134.25208 | 14258 ft | 364 kts | 289° |
| 2026-04-15 07:41 | -23.73596 | 134.22572 | 13666 ft | 365 kts | 289° |
| 2026-04-15 07:41 | -23.72824 | 134.19938 | 13042 ft | 365 kts | 289° |
| 2026-04-15 07:41 | -23.72051 | 134.17305 | 12444 ft | 364 kts | 289° |
| 2026-04-15 07:42 | -23.71281 | 134.14681 | 11868 ft | 363 kts | 289° |
| 2026-04-15 07:42 | -23.70510 | 134.12059 | 11296 ft | 362 kts | 289° |
| 2026-04-15 07:42 | -23.69748 | 134.09464 | 10995 ft | 354 kts | 289° |
| 2026-04-15 07:42 | -23.69008 | 134.06944 | 10785 ft | 343 kts | 289° |
| 2026-04-15 07:43 | -23.68291 | 134.04507 | 10651 ft | 332 kts | 289° |
| 2026-04-15 07:43 | -23.67605 | 134.02176 | 10501 ft | 322 kts | 290° |
| 2026-04-15 07:43 | -23.66929 | 133.99883 | 10311 ft | 314 kts | 290° |
| 2026-04-15 07:43 | -23.66269 | 133.97645 | 10153 ft | 305 kts | 290° |
| 2026-04-15 07:44 | -23.65635 | 133.95493 | 10008 ft | 291 kts | 290° |
| 2026-04-15 07:44 | -23.65021 | 133.93413 | 9692 ft | 287 kts | 290° |
| 2026-04-15 07:44 | -23.64409 | 133.91346 | 9387 ft | 286 kts | 290° |
| 2026-04-15 07:44 | -23.63797 | 133.89280 | 9034 ft | 287 kts | 290° |
| 2026-04-15 07:45 | -23.63182 | 133.87203 | 8681 ft | 288 kts | 290° |
| 2026-04-15 07:45 | -23.62564 | 133.85117 | 8328 ft | 289 kts | 289° |
| 2026-04-15 07:45 | -23.61946 | 133.83030 | 8018 ft | 289 kts | 289° |
| 2026-04-15 07:45 | -23.61332 | 133.80951 | 7739 ft | 286 kts | 289° |
| 2026-04-15 07:46 | -23.60927 | 133.79578 | 7725 ft | 276 kts | 288° |
| 2026-04-15 07:46 | -23.60362 | 133.77672 | 7636 ft | 260 kts | 289° |
| 2026-04-15 07:46 | -23.59812 | 133.75823 | 7524 ft | 246 kts | 289° |
| 2026-04-15 07:46 | -23.59311 | 133.74132 | 7430 ft | 230 kts | 288° |
| 2026-04-15 07:47 | -23.58834 | 133.72525 | 7322 ft | 216 kts | 289° |
| 2026-04-15 07:47 | -23.58522 | 133.70939 | 6997 ft | 215 kts | 267° |
| 2026-04-15 07:47 | -23.59107 | 133.69518 | 6677 ft | 208 kts | 218° |
| 2026-04-15 07:47 | -23.60374 | 133.68914 | 6504 ft | 197 kts | 198° |
| 2026-04-15 07:48 | -23.61572 | 133.68191 | 6370 ft | 196 kts | 213° |
| 2026-04-15 07:48 | -23.62658 | 133.67333 | 6297 ft | 190 kts | 216° |
| 2026-04-15 07:48 | -23.63695 | 133.66484 | 6162 ft | 181 kts | 213° |
| 2026-04-15 07:48 | -23.64783 | 133.65926 | 6077 ft | 168 kts | 183° |
| 2026-04-15 07:49 | -23.65960 | 133.65876 | 6071 ft | 172 kts | 169° |
| 2026-04-15 07:49 | -23.67071 | 133.66281 | 5976 ft | 165 kts | 149° |
| 2026-04-15 07:49 | -23.67919 | 133.67026 | 5871 ft | 151 kts | 126° |
| 2026-04-15 07:49 | -23.68595 | 133.67985 | 5793 ft | 168 kts | 124° |
| 2026-04-15 07:50 | -23.69221 | 133.69037 | 5645 ft | 164 kts | 119° |
| 2026-04-15 07:50 | -23.69803 | 133.70112 | 5525 ft | 164 kts | 118° |
| 2026-04-15 07:50 | -23.70387 | 133.71206 | 5482 ft | 169 kts | 118° |
| 2026-04-15 07:50 | -23.70985 | 133.72324 | 5291 ft | 172 kts | 118° |
| 2026-04-15 07:51 | -23.71588 | 133.73450 | 5071 ft | 171 kts | 118° |
| 2026-04-15 07:51 | -23.72186 | 133.74565 | 4846 ft | 169 kts | 119° |
| 2026-04-15 07:51 | -23.72774 | 133.75665 | 4620 ft | 166 kts | 118° |
| 2026-04-15 07:51 | -23.73325 | 133.76741 | 4476 ft | 163 kts | 119° |
| 2026-04-15 07:52 | -23.73916 | 133.77837 | 4210 ft | 166 kts | 120° |
| 2026-04-15 07:52 | -23.74489 | 133.78892 | 3989 ft | 155 kts | 120° |
| 2026-04-15 07:52 | -23.75020 | 133.79876 | 3779 ft | 146 kts | 120° |
| 2026-04-15 07:52 | -23.75527 | 133.80816 | 3602 ft | 144 kts | 120° |
| 2026-04-15 07:53 | -23.76030 | 133.81750 | 3404 ft | 143 kts | 119° |
| 2026-04-15 07:53 | -23.76525 | 133.82671 | 3225 ft | 142 kts | 119° |
| 2026-04-15 07:53 | -23.77017 | 133.83585 | 3039 ft | 136 kts | 119° |
| 2026-04-15 07:53 | -23.77487 | 133.84460 | 2863 ft | 133 kts | 119° |
| 2026-04-15 07:54 | -23.77959 | 133.85338 | 2694 ft | 138 kts | 119° |
| 2026-04-15 07:54 | -23.78441 | 133.86232 | 2493 ft | 134 kts | 118° |
| 2026-04-15 07:54 | -23.78911 | 133.87116 | 2314 ft | 136 kts | 119° |
| 2026-04-15 07:54 | -23.79386 | 133.87998 | 2098 ft | 137 kts | 119° |
| 2026-04-15 07:55 | -23.79875 | 133.88897 | 1932 ft | 137 kts | 117° |
| 2026-04-15 07:55 | -23.80344 | 133.89779 | 1792 ft | 126 kts | 119° |
| 2026-04-15 07:55 | -23.80937 | 133.90888 | 1786 ft | 49 kts | 119° |
| 2026-04-15 07:56 | -23.81068 | 133.91133 | 1786 ft | 25 kts | 120° |
| 2026-04-15 07:56 | -23.81149 | 133.91287 | 1785 ft | 22 kts | 111° |
| 2026-04-15 07:56 | -23.81178 | 133.91391 | 1784 ft | 7 kts | 154° |
| 2026-04-15 07:56 | -23.81184 | 133.91343 | 1783 ft | 15 kts | 311° |
| 2026-04-15 07:57 | -23.81092 | 133.91179 | 1786 ft | 33 kts | 300° |
| 2026-04-15 07:57 | -23.80975 | 133.90961 | 1786 ft | 33 kts | 300° |
| 2026-04-15 07:57 | -23.80861 | 133.90749 | 1785 ft | 32 kts | 300° |
| 2026-04-15 07:57 | -23.80749 | 133.90540 | 1786 ft | 32 kts | 300° |
| 2026-04-15 07:58 | -23.80652 | 133.90360 | 1788 ft | 17 kts | 303° |
| 2026-04-15 07:58 | -23.80569 | 133.90336 | 1790 ft | 10 kts | 36° |
| 2026-04-15 07:58 | -23.80525 | 133.90361 | 1792 ft | 6 kts | 30° |
| 2026-04-15 07:58 | -23.80467 | 133.90365 | 1792 ft | 13 kts | 317° |
| 2026-04-15 07:59 | -23.80409 | 133.90258 | 1792 ft | 17 kts | 301° |
| 2026-04-15 07:59 | -23.80355 | 133.90161 | 1792 ft | 13 kts | 300° |
| 2026-04-15 07:59 | -23.80333 | 133.90138 | 1792 ft | 1 kts | 23° |
| 2026-04-15 07:59 | -23.80317 | 133.90161 | 1792 ft | 3 kts | 59° |
| 2026-04-15 08:00 | -23.80308 | 133.90177 | 1792 ft | 0 kts | 61° |